Bryn Mawr, California
Current Conditions -  °F | °C
As of 7:00 AM on Saturday 22 Nov 2014 (Local Time) from KSBD Reporting Station
Scattered Clouds Scattered Clouds  
Wind Chill: 45°   Ceiling: Unl
Heat Index: 45°   Visibility: 10mi
Dew Point: 39°   Wind: 0mph
Humidity: 81%   Direction: NA
Pressure: 30.1"   Gusts: NA
Location:  34.05°N, 117.23°W
Report Text: KSBD 221500Z 00000KT 10SM SCT160 07/04 A3010
Loading
Personal Weather Stations






























Interactive Weather Map New forecast layout! Learn more

10-Day Weather Forecast

Advertisements
Track Severe Weather on mobile